createdAt,value
2019-03-19T00:01:11.833Z,33.73
2019-03-19T00:03:39.839Z,33.87
2019-03-19T00:06:07.664Z,33.74
2019-03-19T00:08:35.818Z,33.52
2019-03-19T00:11:04.929Z,33.47
2019-03-19T00:13:33.101Z,32.88
2019-03-19T00:16:01.186Z,32.88
2019-03-19T00:18:29.505Z,32.96
2019-03-19T00:20:57.307Z,32.98
2019-03-19T00:23:25.662Z,32.78
2019-03-19T00:25:54.280Z,33.28
2019-03-19T00:28:22.878Z,33.44
2019-03-19T00:30:50.935Z,33.41
2019-03-19T00:33:18.942Z,33.53
2019-03-19T00:35:47.205Z,33.44
2019-03-19T00:38:15.307Z,33.58
2019-03-19T00:40:43.372Z,33.48
2019-03-19T00:43:11.816Z,33.28
2019-03-19T00:45:40.129Z,33.40
2019-03-19T00:48:07.879Z,33.51
2019-03-19T00:50:36.188Z,33.40
2019-03-19T00:53:04.764Z,33.16
2019-03-19T00:55:40.551Z,33.09
2019-03-19T00:58:02.548Z,32.97
2019-03-19T01:00:32.173Z,32.89
2019-03-19T01:03:00.319Z,32.76
2019-03-19T01:05:29.420Z,32.93
2019-03-19T01:07:58.093Z,33.25
2019-03-19T01:10:26.037Z,33.21
2019-03-19T01:12:53.969Z,33.23
2019-03-19T01:15:22.603Z,33.14
2019-03-19T01:17:50.697Z,33.20
2019-03-19T01:20:19.179Z,33.31
2019-03-19T01:22:46.911Z,33.22
2019-03-19T01:25:15.748Z,33.38
2019-03-19T01:27:44.156Z,33.39
2019-03-19T01:30:12.992Z,33.35
2019-03-19T01:32:40.748Z,33.19
2019-03-19T01:35:08.967Z,33.00
2019-03-19T01:37:37.031Z,32.93
2019-03-19T01:40:06.063Z,32.67
2019-03-19T01:42:33.822Z,32.68
2019-03-19T01:45:01.812Z,32.74
2019-03-19T01:47:29.945Z,32.89
2019-03-19T01:49:58.488Z,33.10
2019-03-19T01:52:27.504Z,33.25
2019-03-19T01:54:57.744Z,33.29
2019-03-19T01:57:28.857Z,33.10
2019-03-19T01:59:59.881Z,33.25
2019-03-19T02:02:28.783Z,33.39
2019-03-19T02:04:57.507Z,33.54
2019-03-19T02:07:26.952Z,33.46
2019-03-19T02:09:56.081Z,33.37
2019-03-19T02:12:24.210Z,33.12
2019-03-19T02:14:52.578Z,32.96
2019-03-19T02:17:20.519Z,32.80
2019-03-19T02:21:14.568Z,33.30
2019-03-19T02:23:41.662Z,33.44
2019-03-19T02:26:16.541Z,33.32
2019-03-19T02:28:58.219Z,33.23
2019-03-19T02:31:26.216Z,32.72
2019-03-19T02:33:53.273Z,32.62
2019-03-19T02:36:21.274Z,32.66
2019-03-19T02:38:49.200Z,32.91
2019-03-19T02:41:17.230Z,33.07
2019-03-19T02:43:44.975Z,33.22
2019-03-19T02:46:12.871Z,33.26
2019-03-19T02:48:41.663Z,33.17
2019-03-19T02:51:09.910Z,33.20
2019-03-19T02:53:38.197Z,33.21
2019-03-19T02:56:07.493Z,33.08
2019-03-19T02:58:35.619Z,33.20
2019-03-19T03:01:03.939Z,33.46
2019-03-19T03:03:32.418Z,33.31
2019-03-19T03:06:04.685Z,33.12
2019-03-19T03:08:34.028Z,33.06
2019-03-19T03:11:02.344Z,33.01
2019-03-19T03:13:30.257Z,32.83
2019-03-19T03:15:58.397Z,32.69
2019-03-19T03:18:26.685Z,32.95
2019-03-19T03:20:54.727Z,33.18
2019-03-19T03:23:23.265Z,33.23
2019-03-19T03:25:51.526Z,33.33
2019-03-19T03:28:21.035Z,33.40
2019-03-19T03:30:49.342Z,33.27
2019-03-19T03:33:17.185Z,33.24
2019-03-19T03:35:45.137Z,33.39
2019-03-19T03:38:13.350Z,33.38
2019-03-19T03:40:41.203Z,33.48
2019-03-19T03:43:08.995Z,33.52
2019-03-19T03:45:37.606Z,33.37
2019-03-19T03:48:05.382Z,33.19
2019-03-19T03:50:33.740Z,32.90
2019-03-19T03:53:01.506Z,32.93
2019-03-19T03:55:31.224Z,32.98
2019-03-19T03:58:00.147Z,32.84
2019-03-19T04:00:28.113Z,33.14
2019-03-19T04:02:58.222Z,33.28
2019-03-19T04:05:27.120Z,33.51
2019-03-19T04:07:55.455Z,33.35
2019-03-19T04:10:23.435Z,33.38
2019-03-19T04:15:25.898Z,33.43
2019-03-19T04:17:53.404Z,33.39
2019-03-19T04:20:21.576Z,33.44
2019-03-19T04:22:49.288Z,33.31
2019-03-19T04:25:16.488Z,33.10
2019-03-19T04:27:43.871Z,33.18
2019-03-19T04:30:11.985Z,33.09
2019-03-19T04:32:39.211Z,32.91
2019-03-19T04:35:06.739Z,32.92
2019-03-19T04:37:34.382Z,32.88
2019-03-19T04:40:02.141Z,32.99
2019-03-19T04:42:29.862Z,33.16
2019-03-19T04:44:57.732Z,33.34
2019-03-19T04:47:25.813Z,33.40
2019-03-19T04:49:53.711Z,33.39
2019-03-19T04:52:21.561Z,33.39
2019-03-19T04:54:50.080Z,33.47
2019-03-19T04:57:26.315Z,33.42
2019-03-19T04:59:48.935Z,33.43
2019-03-19T05:02:17.260Z,33.36
2019-03-19T05:04:44.978Z,33.45
2019-03-19T05:07:13.888Z,33.36
2019-03-19T05:09:42.819Z,33.27
2019-03-19T05:12:13.809Z,33.23
2019-03-19T05:14:42.581Z,33.00
2019-03-19T05:17:11.006Z,33.04
2019-03-19T05:19:39.559Z,32.89
2019-03-19T05:22:07.865Z,33.21
2019-03-19T05:24:37.402Z,33.42
2019-03-19T05:27:05.821Z,33.45
2019-03-19T05:29:34.118Z,33.46
2019-03-19T05:32:02.506Z,33.40
2019-03-19T05:34:30.726Z,33.62
2019-03-19T05:36:59.322Z,33.57
2019-03-19T05:39:27.718Z,33.50
2019-03-19T05:41:56.899Z,33.60
2019-03-19T05:44:25.784Z,33.57
2019-03-19T05:46:54.240Z,33.46
2019-03-19T05:49:22.935Z,33.25
2019-03-19T05:51:51.219Z,33.16
2019-03-19T05:54:19.584Z,33.08
2019-03-19T05:56:47.673Z,33.42
2019-03-19T05:59:15.929Z,33.33
2019-03-19T06:01:50.129Z,33.37
2019-03-19T06:04:17.949Z,33.58
2019-03-19T06:06:47.076Z,33.63
2019-03-19T06:09:20.337Z,33.60
2019-03-19T06:11:48.553Z,33.59
2019-03-19T06:14:17.053Z,33.50
2019-03-19T06:16:45.863Z,33.60
2019-03-19T06:19:14.171Z,33.53
2019-03-19T06:21:42.587Z,33.96
2019-03-19T06:24:11.385Z,33.93
2019-03-19T06:26:40.390Z,34.22
2019-03-19T06:29:08.272Z,34.36
2019-03-19T06:31:36.835Z,34.46
2019-03-19T06:34:06.023Z,34.58
2019-03-19T06:36:38.562Z,34.60
2019-03-19T06:39:11.477Z,34.04
2019-03-19T06:41:42.402Z,33.69
2019-03-19T06:44:10.716Z,33.61
2019-03-19T06:46:39.838Z,33.57
2019-03-19T06:49:09.068Z,33.50
2019-03-19T06:51:39.024Z,33.40
2019-03-19T06:54:07.979Z,33.45
2019-03-19T06:56:37.868Z,33.43
2019-03-19T06:59:05.773Z,33.36
2019-03-19T07:01:34.782Z,33.37
2019-03-19T07:04:02.710Z,33.02
2019-03-19T07:06:30.772Z,32.92
2019-03-19T07:08:59.554Z,32.90
2019-03-19T07:11:28.819Z,32.68
2019-03-19T07:13:56.941Z,32.82
2019-03-19T07:16:26.150Z,32.74
2019-03-19T07:18:54.754Z,32.95
2019-03-19T07:21:23.699Z,32.94
2019-03-19T07:23:52.613Z,33.04
2019-03-19T07:28:50.110Z,32.91
2019-03-19T07:31:18.543Z,32.99
2019-03-19T07:33:48.948Z,33.01
2019-03-19T07:36:17.602Z,32.98
2019-03-19T07:38:46.166Z,33.29
2019-03-19T07:41:14.306Z,33.41
2019-03-19T07:43:43.501Z,33.36
2019-03-19T07:46:11.689Z,33.26
2019-03-19T07:48:41.043Z,33.57
2019-03-19T07:51:09.803Z,33.77
2019-03-19T07:53:39.664Z,33.45
2019-03-19T07:56:09.301Z,33.72
2019-03-19T07:58:45.178Z,34.13
2019-03-19T08:01:11.266Z,33.31
2019-03-19T08:03:39.453Z,33.08
2019-03-19T08:06:07.665Z,32.98
2019-03-19T08:08:36.766Z,33.19
2019-03-19T08:11:07.561Z,33.32
2019-03-19T08:13:36.189Z,32.90
2019-03-19T08:16:06.067Z,32.68
2019-03-19T08:18:36.165Z,32.51
2019-03-19T08:21:04.639Z,32.30
2019-03-19T08:23:34.415Z,32.21
2019-03-19T08:26:02.923Z,32.30
2019-03-19T08:28:33.661Z,32.11
2019-03-19T08:31:02.815Z,31.96
2019-03-19T08:33:32.011Z,32.19
2019-03-19T08:36:08.962Z,32.68
2019-03-19T08:38:30.275Z,32.50
2019-03-19T08:40:58.243Z,32.98
2019-03-19T08:43:26.381Z,33.14
2019-03-19T08:45:54.752Z,33.52
2019-03-19T08:48:23.702Z,33.37
2019-03-19T08:50:51.735Z,33.56
2019-03-19T08:53:20.457Z,33.31
2019-03-19T08:55:48.832Z,33.10
2019-03-19T08:58:16.965Z,31.81
2019-03-19T09:00:44.684Z,31.81
2019-03-19T09:03:12.547Z,31.42
2019-03-19T09:05:40.355Z,31.28
2019-03-19T09:08:08.301Z,31.23
2019-03-19T09:10:37.397Z,31.26
2019-03-19T09:13:05.405Z,31.84
2019-03-19T09:15:34.154Z,31.79
2019-03-19T09:18:02.547Z,31.73
2019-03-19T09:20:31.947Z,31.67
2019-03-19T09:22:59.734Z,31.54
2019-03-19T09:25:27.779Z,31.41
2019-03-19T09:27:55.793Z,31.36
2019-03-19T09:30:23.775Z,31.21
2019-03-19T09:32:53.570Z,31.15
2019-03-19T09:35:20.916Z,31.08
2019-03-19T09:37:57.774Z,30.85
2019-03-19T09:40:18.716Z,30.43
2019-03-19T09:42:47.315Z,30.40
2019-03-19T09:45:15.358Z,30.79
2019-03-19T09:47:44.464Z,30.58
2019-03-19T09:50:14.004Z,30.19
2019-03-19T09:52:43.064Z,30.89
2019-03-19T09:55:11.190Z,31.03
2019-03-19T09:57:39.989Z,31.14
2019-03-19T10:00:12.333Z,31.09
2019-03-19T10:02:41.277Z,31.19
2019-03-19T10:05:08.898Z,31.27
2019-03-19T10:07:36.971Z,31.46
2019-03-19T10:10:07.500Z,31.60
2019-03-19T10:12:37.044Z,31.74
2019-03-19T10:15:06.581Z,31.68
2019-03-19T10:17:35.280Z,31.61
2019-03-19T10:20:05.320Z,31.25
2019-03-19T10:22:33.723Z,31.62
2019-03-19T10:25:01.739Z,31.65
2019-03-19T10:27:29.814Z,32.00
2019-03-19T10:29:58.597Z,31.60
2019-03-19T10:32:26.964Z,31.54
2019-03-19T10:34:55.404Z,30.65
2019-03-19T10:37:23.186Z,27.64
2019-03-19T10:39:51.840Z,26.22
2019-03-19T10:42:20.892Z,25.77
2019-03-19T10:44:49.989Z,25.39
2019-03-19T10:47:17.758Z,26.24
2019-03-19T10:49:46.621Z,26.78
2019-03-19T10:52:14.712Z,27.35
2019-03-19T10:54:43.202Z,27.90
2019-03-19T10:57:11.151Z,28.07
2019-03-19T10:59:48.716Z,28.04
2019-03-19T11:02:09.629Z,28.23
2019-03-19T11:04:37.617Z,28.61
2019-03-19T11:07:05.795Z,28.56
2019-03-19T11:09:33.755Z,28.43
2019-03-19T11:12:02.095Z,29.10
2019-03-19T11:14:30.455Z,29.36
2019-03-19T11:16:59.975Z,29.68
2019-03-19T11:19:28.018Z,29.93
2019-03-19T11:21:56.100Z,30.13
2019-03-19T11:24:23.923Z,30.11
2019-03-19T11:26:53.097Z,30.68
2019-03-19T11:29:22.220Z,30.69
2019-03-19T11:31:51.991Z,30.89
2019-03-19T11:34:20.325Z,30.76
2019-03-19T11:36:57.683Z,30.61
2019-03-19T11:39:23.336Z,30.79
2019-03-19T11:41:51.738Z,30.78
2019-03-19T11:44:19.492Z,30.60
2019-03-19T11:46:49.232Z,30.48
2019-03-19T11:49:17.618Z,30.39
2019-03-19T11:51:47.721Z,30.59
2019-03-19T11:54:16.104Z,30.86
2019-03-19T11:56:45.910Z,31.27
2019-03-19T11:59:14.294Z,31.31
2019-03-19T12:01:42.235Z,31.45
2019-03-19T12:04:10.633Z,31.48
2019-03-19T12:06:39.762Z,31.56
2019-03-19T12:09:08.103Z,31.65
2019-03-19T12:11:37.352Z,31.82
2019-03-19T12:14:05.825Z,31.77
2019-03-19T12:16:33.728Z,31.58
2019-03-19T12:19:02.491Z,31.44
2019-03-19T12:21:30.935Z,31.37
2019-03-19T12:24:00.156Z,30.34
2019-03-19T12:26:30.772Z,31.27
2019-03-19T12:29:00.748Z,31.08
2019-03-19T12:31:31.692Z,30.87
2019-03-19T12:34:01.641Z,30.09
2019-03-19T12:36:32.120Z,30.81
2019-03-19T12:39:01.303Z,30.74
2019-03-19T12:41:29.182Z,30.89
2019-03-19T12:43:58.117Z,30.87
2019-03-19T12:46:26.344Z,31.08
2019-03-19T12:48:54.512Z,31.25
2019-03-19T12:51:24.757Z,31.21
2019-03-19T12:53:53.164Z,30.89
2019-03-19T12:56:22.604Z,31.09
2019-03-19T12:58:52.270Z,29.75
2019-03-19T13:01:21.586Z,30.08
2019-03-19T13:03:51.730Z,30.91
2019-03-19T13:06:21.341Z,30.21
2019-03-19T13:08:49.641Z,31.14
2019-03-19T13:11:18.165Z,31.35
2019-03-19T13:13:46.154Z,31.46
2019-03-19T13:16:16.547Z,31.59
2019-03-19T13:18:45.375Z,32.10
2019-03-19T13:21:13.496Z,32.33
2019-03-19T13:23:42.255Z,32.05
2019-03-19T13:26:10.393Z,32.37
2019-03-19T13:28:40.455Z,32.01
2019-03-19T13:31:08.887Z,31.59
2019-03-19T13:33:37.583Z,31.71
2019-03-19T13:36:05.357Z,31.84
2019-03-19T13:38:33.722Z,32.40
2019-03-19T13:41:01.795Z,32.23
2019-03-19T13:43:30.388Z,32.50
2019-03-19T13:45:58.592Z,32.10
2019-03-19T13:48:27.388Z,32.99
2019-03-19T13:50:58.741Z,33.17
2019-03-19T13:53:27.516Z,33.92
2019-03-19T13:55:57.551Z,33.52
2019-03-19T13:58:27.447Z,33.35
2019-03-19T14:00:58.686Z,33.30
2019-03-19T14:03:27.949Z,33.67
2019-03-19T14:05:57.591Z,33.84
2019-03-19T14:08:28.170Z,34.18
2019-03-19T14:10:57.866Z,34.46
2019-03-19T14:13:28.195Z,34.15
2019-03-19T14:15:56.870Z,34.14
2019-03-19T14:18:26.759Z,33.95
2019-03-19T14:20:54.828Z,34.63
2019-03-19T14:23:24.915Z,34.73
2019-03-19T14:25:53.222Z,34.74
2019-03-19T14:28:22.412Z,34.74
2019-03-19T14:30:51.007Z,34.75
2019-03-19T14:33:18.628Z,30.21
2019-03-19T14:35:46.751Z,29.91
2019-03-19T14:38:14.443Z,27.50
2019-03-19T14:40:42.268Z,25.54
2019-03-19T14:43:09.956Z,26.87
2019-03-19T14:45:38.832Z,26.59
2019-03-19T14:48:07.909Z,25.35
2019-03-19T14:50:36.048Z,24.88
2019-03-19T14:53:04.381Z,25.39
2019-03-19T14:55:32.661Z,25.25
2019-03-19T14:58:00.701Z,24.59
2019-03-19T15:00:28.872Z,30.51
2019-03-19T15:02:56.674Z,29.31
2019-03-19T15:05:26.946Z,28.37
2019-03-19T15:07:57.075Z,30.43
2019-03-19T15:10:25.420Z,30.11
2019-03-19T15:12:53.588Z,28.87
2019-03-19T15:15:23.394Z,29.99
2019-03-19T15:17:55.061Z,30.26
2019-03-19T15:20:24.070Z,30.03
2019-03-19T15:22:52.638Z,29.89
2019-03-19T15:25:21.746Z,26.38
2019-03-19T15:27:49.731Z,30.46
2019-03-19T15:30:18.122Z,29.84
2019-03-19T15:32:46.613Z,29.34
2019-03-19T15:35:15.170Z,29.54
2019-03-19T15:37:43.664Z,30.00
2019-03-19T15:40:12.960Z,28.72
2019-03-19T15:42:42.442Z,29.29
2019-03-19T15:45:12.072Z,30.44
2019-03-19T15:47:43.088Z,30.99
2019-03-19T15:50:13.899Z,30.38
2019-03-19T15:52:42.657Z,29.23
2019-03-19T15:55:11.788Z,30.41
2019-03-19T15:57:39.786Z,29.95
2019-03-19T16:00:11.379Z,29.47
2019-03-19T16:02:41.465Z,29.61
2019-03-19T16:05:10.255Z,28.42
2019-03-19T16:07:38.165Z,27.45
2019-03-19T16:10:07.101Z,25.42
2019-03-19T16:12:35.230Z,25.63
2019-03-19T16:15:04.154Z,28.58
2019-03-19T16:17:36.590Z,27.48
2019-03-19T16:20:09.318Z,27.65
2019-03-19T16:22:39.416Z,28.62
2019-03-19T16:25:09.151Z,27.90
2019-03-19T16:27:39.207Z,25.41
2019-03-19T16:30:09.064Z,28.48
2019-03-19T16:32:38.969Z,27.08
2019-03-19T16:35:07.749Z,26.39
2019-03-19T16:37:37.667Z,27.04
2019-03-19T16:40:08.798Z,26.24
2019-03-19T16:42:37.584Z,27.13
2019-03-19T16:45:07.432Z,26.44
2019-03-19T16:47:36.261Z,26.70
2019-03-19T16:50:05.176Z,28.01
2019-03-19T16:52:33.533Z,29.35
2019-03-19T16:55:01.856Z,29.32
2019-03-19T16:57:30.582Z,30.77
2019-03-19T17:00:00.314Z,30.76
2019-03-19T17:02:28.740Z,30.77
2019-03-19T17:04:58.561Z,30.94
2019-03-19T17:07:28.036Z,31.05
2019-03-19T17:09:56.491Z,30.86
2019-03-19T17:12:25.248Z,30.84
2019-03-19T17:14:53.483Z,30.84
2019-03-19T17:17:22.635Z,30.64
2019-03-19T17:19:50.791Z,30.07
2019-03-19T17:22:19.483Z,29.53
2019-03-19T17:24:48.056Z,30.33
2019-03-19T17:27:16.727Z,29.72
2019-03-19T17:29:46.529Z,29.91
2019-03-19T17:32:15.029Z,29.27
2019-03-19T17:34:43.336Z,30.47
2019-03-19T17:37:11.780Z,31.06
2019-03-19T17:39:41.285Z,31.54
2019-03-19T17:42:11.006Z,31.28
2019-03-19T17:44:39.264Z,31.41
2019-03-19T17:47:07.198Z,31.56
2019-03-19T17:49:35.912Z,31.78
2019-03-19T17:52:04.286Z,32.21
2019-03-19T17:54:33.134Z,32.20
2019-03-19T17:57:02.208Z,32.25
2019-03-19T17:59:31.334Z,31.41
2019-03-19T18:02:01.274Z,31.82
2019-03-19T18:04:29.833Z,31.42
2019-03-19T18:06:58.213Z,31.40
2019-03-19T18:09:27.738Z,31.79
2019-03-19T18:11:55.589Z,31.10
2019-03-19T18:14:24.391Z,31.90
2019-03-19T18:16:52.348Z,32.40
2019-03-19T18:19:21.224Z,32.25
2019-03-19T18:21:49.983Z,32.18
2019-03-19T18:24:18.851Z,32.62
2019-03-19T18:26:47.203Z,32.84
2019-03-19T18:29:15.717Z,32.14
2019-03-19T18:31:44.043Z,31.93
2019-03-19T18:34:12.312Z,31.85
2019-03-19T18:36:40.449Z,31.72
2019-03-19T18:39:09.680Z,31.37
2019-03-19T18:41:39.185Z,31.06
2019-03-19T18:44:08.113Z,31.09
2019-03-19T18:46:36.703Z,30.73
2019-03-19T18:49:05.212Z,31.26
2019-03-19T18:51:33.558Z,30.85
2019-03-19T18:54:01.575Z,31.48
2019-03-19T18:56:31.500Z,32.69
2019-03-19T18:58:59.398Z,32.22
2019-03-19T19:01:28.057Z,32.48
2019-03-19T19:03:57.122Z,32.55
2019-03-19T19:06:25.638Z,32.61
2019-03-19T19:08:53.774Z,32.61
2019-03-19T19:11:21.632Z,32.68
2019-03-19T19:13:49.538Z,32.62
2019-03-19T19:16:18.820Z,32.57
2019-03-19T19:18:46.915Z,32.12
2019-03-19T19:21:15.461Z,32.14
2019-03-19T19:23:44.178Z,32.74
2019-03-19T19:26:12.616Z,31.34
2019-03-19T19:28:42.866Z,31.85
2019-03-19T19:31:13.300Z,32.75
2019-03-19T19:33:43.176Z,32.96
2019-03-19T19:36:13.188Z,32.85
2019-03-19T19:38:43.976Z,32.93
2019-03-19T19:41:15.240Z,33.19
2019-03-19T19:43:44.811Z,33.22
2019-03-19T19:46:13.361Z,32.91
2019-03-19T19:48:43.265Z,32.93
2019-03-19T19:51:13.447Z,32.77
2019-03-19T19:53:43.462Z,32.67
2019-03-19T19:56:14.529Z,32.43
2019-03-19T19:58:44.443Z,32.05
2019-03-19T20:01:14.550Z,31.84
2019-03-19T20:03:46.611Z,32.39
2019-03-19T20:06:14.713Z,32.23
2019-03-19T20:08:44.201Z,32.43
2019-03-19T20:11:12.023Z,32.72
2019-03-19T20:13:43.907Z,32.09
2019-03-19T20:16:12.068Z,32.13
2019-03-19T20:18:40.444Z,31.91
2019-03-19T20:21:09.564Z,31.74
2019-03-19T20:23:38.695Z,31.70
2019-03-19T20:26:06.416Z,31.69
2019-03-19T20:28:36.612Z,31.93
2019-03-19T20:31:06.888Z,31.59
2019-03-19T20:33:37.541Z,31.25
2019-03-19T20:36:07.376Z,31.11
2019-03-19T20:38:38.253Z,30.56
2019-03-19T20:41:07.814Z,30.47
2019-03-19T20:43:39.094Z,30.53
2019-03-19T20:46:07.598Z,31.31
2019-03-19T20:48:36.823Z,31.54
2019-03-19T20:51:06.606Z,31.59
2019-03-19T20:53:37.099Z,31.57
2019-03-19T20:56:07.079Z,31.68
2019-03-19T20:58:43.573Z,31.77
2019-03-19T21:01:11.538Z,31.78
2019-03-19T21:03:41.570Z,31.56
2019-03-19T21:06:11.454Z,31.02
2019-03-19T21:08:41.717Z,31.25
2019-03-19T21:11:09.664Z,30.96
2019-03-19T21:13:39.659Z,30.74
2019-03-19T21:16:09.212Z,30.73
2019-03-19T21:18:37.909Z,30.77
2019-03-19T21:21:06.156Z,31.27
2019-03-19T21:23:34.065Z,31.37
2019-03-19T21:26:02.302Z,31.48
2019-03-19T21:28:30.699Z,31.47
2019-03-19T21:30:58.661Z,31.60
2019-03-19T21:33:27.436Z,31.44
2019-03-19T21:35:55.742Z,31.71
2019-03-19T21:38:23.594Z,31.62
2019-03-19T21:40:51.666Z,31.66
2019-03-19T21:43:19.528Z,31.57
2019-03-19T21:45:47.907Z,31.06
2019-03-19T21:48:15.619Z,30.99
2019-03-19T21:50:45.417Z,30.61
2019-03-19T21:53:13.742Z,30.52
2019-03-19T21:55:44.029Z,30.38
2019-03-19T21:58:12.032Z,30.23
2019-03-19T22:00:41.018Z,30.80
2019-03-19T22:03:09.635Z,31.08
2019-03-19T22:05:38.492Z,31.19
2019-03-19T22:08:07.248Z,31.17
2019-03-19T22:10:35.256Z,31.16
2019-03-19T22:13:03.515Z,31.19
2019-03-19T22:15:31.874Z,31.32
2019-03-19T22:18:01.032Z,30.97
2019-03-19T22:20:29.505Z,30.98
2019-03-19T22:22:59.441Z,30.93
2019-03-19T22:25:27.683Z,30.65
2019-03-19T22:27:56.152Z,30.44
2019-03-19T22:30:24.982Z,30.37
2019-03-19T22:32:54.084Z,30.09
2019-03-19T22:35:23.529Z,30.20
2019-03-19T22:37:51.855Z,29.95
2019-03-19T22:40:20.557Z,30.38
2019-03-19T22:42:49.234Z,30.65
2019-03-19T22:45:17.755Z,30.90
2019-03-19T22:47:46.399Z,30.78
2019-03-19T22:50:16.014Z,30.89
2019-03-19T22:52:44.751Z,30.77
2019-03-19T22:55:14.932Z,30.81
2019-03-19T22:57:43.427Z,30.88
2019-03-19T23:00:18.104Z,31.09
2019-03-19T23:02:46.175Z,30.88
2019-03-19T23:05:14.900Z,30.09
2019-03-19T23:07:42.765Z,30.39
2019-03-19T23:10:10.576Z,30.33
2019-03-19T23:12:38.505Z,30.23
2019-03-19T23:15:08.377Z,30.16
2019-03-19T23:17:36.884Z,30.02
2019-03-19T23:20:06.240Z,30.69
2019-03-19T23:22:34.954Z,30.74
2019-03-19T23:25:03.619Z,30.68
2019-03-19T23:27:31.391Z,30.78
2019-03-19T23:29:59.549Z,30.72
2019-03-19T23:32:27.561Z,30.69
2019-03-19T23:34:55.176Z,30.83
2019-03-19T23:37:23.955Z,30.96
2019-03-19T23:39:53.595Z,30.95
2019-03-19T23:42:22.454Z,30.73
2019-03-19T23:44:50.827Z,30.59
2019-03-19T23:47:19.698Z,30.43
2019-03-19T23:49:47.380Z,30.33
2019-03-19T23:52:16.430Z,30.22
2019-03-19T23:54:44.953Z,29.98
2019-03-19T23:57:13.204Z,29.96
2019-03-19T23:59:41.531Z,30.50
